Castanheira, Brazil
Current Conditions -  °F | °C
As of 1:00 PM on Thursday 18 Dec 2014 (Local Time) from SBAT Reporting Station
Broken Clouds Broken Clouds  
Wind Chill: 91°   Ceiling: 9000
Heat Index: 100°   Visibility: 6mi
Dew Point: 73°   Wind: 0mph
Humidity: 55%   Direction: NA
Pressure: 29.88"   Gusts: NA
Location:  11.13°S, 58.6°W
Report Text: SBAT 181600Z 00000KT 9999 FEW025 BKN090 33/23 Q1012
Loading
Personal Weather Stations






























Interactive Weather Map New forecast layout! Learn more

10-Day Weather Forecast

Advertisements
Track Severe Weather on mobile